createdAt,value
2022-12-08T00:02:48.430Z,19.90
2022-12-08T00:08:09.513Z,18.37
2022-12-08T00:13:12.939Z,18.93
2022-12-08T00:18:17.734Z,20.57
2022-12-08T00:23:21.135Z,18.60
2022-12-08T00:28:24.498Z,17.97
2022-12-08T00:33:30.274Z,19.63
2022-12-08T00:38:33.635Z,19.80
2022-12-08T00:43:37.008Z,19.37
2022-12-08T00:48:41.792Z,18.93
2022-12-08T00:53:45.127Z,18.00
2022-12-08T00:58:48.582Z,19.50
2022-12-08T01:03:53.830Z,18.67
2022-12-08T01:08:57.165Z,19.70
2022-12-08T01:14:00.763Z,19.23
2022-12-08T01:19:05.547Z,20.27
2022-12-08T01:24:11.674Z,20.00
2022-12-08T01:29:15.099Z,19.57
2022-12-08T01:34:20.046Z,18.50
2022-12-08T01:39:23.408Z,16.93
2022-12-08T01:45:06.575Z,17.93
2022-12-08T01:50:14.318Z,18.53
2022-12-08T01:55:21.944Z,17.77
2022-12-08T02:00:25.807Z,19.90
2022-12-08T02:05:34.429Z,19.13
2022-12-08T02:10:39.574Z,19.30
2022-12-08T02:15:59.279Z,19.93
2022-12-08T02:21:07.807Z,19.00
2022-12-08T02:26:36.053Z,18.13
2022-12-08T02:31:55.691Z,17.70
2022-12-08T02:37:08.947Z,17.50
2022-12-08T02:42:19.939Z,17.47
2022-12-08T02:47:26.400Z,16.70
2022-12-08T02:52:45.248Z,15.30
2022-12-08T02:58:39.278Z,18.13
2022-12-08T03:03:53.130Z,16.43
2022-12-08T03:09:03.909Z,15.73
2022-12-08T03:14:10.101Z,16.13
2022-12-08T03:19:20.121Z,13.53
2022-12-08T03:24:25.087Z,15.83
2022-12-08T03:29:28.710Z,20.43
2022-12-08T03:34:32.653Z,21.87
2022-12-08T03:39:37.403Z,24.93
2022-12-08T03:44:40.845Z,22.50
2022-12-08T03:49:44.218Z,22.97
2022-12-08T03:54:49.055Z,22.20
2022-12-08T03:59:52.420Z,26.77
2022-12-08T04:04:56.959Z,23.63
2022-12-08T04:10:02.110Z,21.83
2022-12-08T04:15:07.545Z,18.03
2022-12-08T04:20:11.876Z,17.23
2022-12-08T04:25:17.048Z,18.37
2022-12-08T04:30:20.645Z,16.20
2022-12-08T04:35:24.036Z,15.33
2022-12-08T04:40:28.819Z,16.80
2022-12-08T04:45:32.498Z,14.43
2022-12-08T04:50:36.149Z,15.67
2022-12-08T04:55:42.061Z,15.80
2022-12-08T05:00:46.181Z,16.13
2022-12-08T05:05:49.527Z,13.60
2022-12-08T05:10:54.242Z,12.80
2022-12-08T05:16:04.184Z,13.40
2022-12-08T05:21:08.871Z,14.30
2022-12-08T05:26:13.647Z,12.67
2022-12-08T05:31:18.482Z,13.30
2022-12-08T05:36:22.305Z,13.10
2022-12-08T05:41:27.261Z,12.77
2022-12-08T05:46:30.775Z,13.10
2022-12-08T05:51:34.228Z,11.07
2022-12-08T05:56:39.013Z,12.90
2022-12-08T06:01:42.764Z,12.83
2022-12-08T06:06:46.429Z,17.07
2022-12-08T06:11:51.198Z,13.93
2022-12-08T06:16:54.921Z,14.10
2022-12-08T06:21:58.314Z,16.20
2022-12-08T06:27:03.102Z,11.40
2022-12-08T06:32:06.918Z,10.13
2022-12-08T06:37:10.413Z,10.90
2022-12-08T06:42:32.454Z,9.53
2022-12-08T06:47:35.906Z,9.47
2022-12-08T06:52:49.331Z,10.97
2022-12-08T06:58:00.715Z,10.50
2022-12-08T07:03:04.150Z,9.50
2022-12-08T07:08:10.060Z,11.10
2022-12-08T07:13:14.839Z,10.50
2022-12-08T07:18:18.382Z,12.17
2022-12-08T07:23:21.789Z,11.87
2022-12-08T07:28:26.589Z,12.40
2022-12-08T07:33:29.997Z,12.17
2022-12-08T07:38:33.770Z,12.97
2022-12-08T07:43:38.522Z,12.20
2022-12-08T07:48:42.033Z,12.23
2022-12-08T07:53:53.228Z,10.77
2022-12-08T07:58:58.784Z,12.20
2022-12-08T08:04:04.604Z,11.07
2022-12-08T08:09:08.905Z,11.53
2022-12-08T08:14:13.664Z,9.23
2022-12-08T08:19:17.074Z,9.87
2022-12-08T08:24:21.715Z,10.30
2022-12-08T08:29:26.695Z,9.10
2022-12-08T08:34:30.052Z,9.57
2022-12-08T08:39:33.443Z,10.37
2022-12-08T08:44:39.102Z,12.83
2022-12-08T08:49:42.877Z,12.27
2022-12-08T08:54:46.241Z,14.30
2022-12-08T08:59:51.018Z,15.77
2022-12-08T09:04:54.663Z,12.67
2022-12-08T09:10:01.915Z,13.73
2022-12-08T09:15:08.849Z,14.90
2022-12-08T09:20:12.516Z,16.73
2022-12-08T09:25:15.919Z,16.23
2022-12-08T09:30:20.836Z,15.43
2022-12-08T09:35:24.224Z,16.20
2022-12-08T09:40:28.359Z,18.67
2022-12-08T09:45:36.952Z,18.43
2022-12-08T09:50:45.112Z,16.67
2022-12-08T09:55:53.845Z,18.47
2022-12-08T10:00:58.603Z,21.27
2022-12-08T10:06:17.083Z,18.30
2022-12-08T10:11:28.097Z,19.00
2022-12-08T10:16:37.174Z,17.23
2022-12-08T10:21:41.097Z,18.23
2022-12-08T10:26:44.658Z,17.97
2022-12-08T10:31:49.429Z,19.03
2022-12-08T10:36:54.054Z,18.47
2022-12-08T10:42:02.824Z,16.83
2022-12-08T10:47:15.159Z,15.87
2022-12-08T10:52:24.223Z,17.30
2022-12-08T10:57:27.571Z,17.50
2022-12-08T11:02:32.403Z,15.87
2022-12-08T11:07:35.890Z,16.13
2022-12-08T11:12:39.307Z,15.73
2022-12-08T11:17:46.033Z,17.07
2022-12-08T11:22:54.219Z,20.07
2022-12-08T11:27:59.089Z,19.30
2022-12-08T11:33:13.604Z,18.73
2022-12-08T11:38:22.258Z,18.20
2022-12-08T11:43:32.334Z,20.37
2022-12-08T11:48:40.417Z,21.87
2022-12-08T11:53:50.030Z,21.03
2022-12-08T11:58:57.325Z,20.87
2022-12-08T12:04:16.169Z,22.30
2022-12-08T12:09:27.009Z,22.47
2022-12-08T12:14:47.373Z,20.00
2022-12-08T12:19:54.435Z,21.60
2022-12-08T12:24:57.916Z,21.73
2022-12-08T12:30:05.351Z,20.50
2022-12-08T12:35:17.969Z,20.80
2022-12-08T12:40:25.261Z,23.90
2022-12-08T12:45:33.324Z,22.37
2022-12-08T12:50:45.430Z,21.70
2022-12-08T12:55:54.861Z,20.90
2022-12-08T13:01:31.500Z,22.83
2022-12-08T13:06:40.568Z,22.00
2022-12-08T13:11:51.000Z,24.57
2022-12-08T13:16:57.442Z,22.23
2022-12-08T13:22:02.694Z,23.23
2022-12-08T13:27:35.634Z,24.37
2022-12-08T13:38:30.357Z,26.00
2022-12-08T13:43:55.537Z,25.23
2022-12-08T14:00:02.168Z,24.60
2022-12-08T14:05:19.077Z,24.23
2022-12-08T14:10:30.475Z,25.47
2022-12-08T14:15:37.872Z,27.17
2022-12-08T14:21:12.542Z,26.57
2022-12-08T14:26:07.718Z,28.33
2022-12-08T14:31:14.231Z,27.30
2022-12-08T14:36:18.256Z,25.23
2022-12-08T14:41:27.326Z,27.07
2022-12-08T14:46:30.744Z,25.93
2022-12-08T14:51:34.578Z,24.57
2022-12-08T14:56:41.688Z,24.20
2022-12-08T15:01:46.145Z,22.50
2022-12-08T15:06:54.763Z,22.50
2022-12-08T15:12:04.368Z,23.50
2022-12-08T15:17:30.360Z,23.10
2022-12-08T15:22:34.796Z,21.70
2022-12-08T15:27:49.819Z,23.27
2022-12-08T15:32:54.368Z,23.13
2022-12-08T15:37:57.822Z,22.90
2022-12-08T15:43:02.594Z,24.07
2022-12-08T15:48:06.479Z,23.43
2022-12-08T15:53:10.536Z,24.60
2022-12-08T16:09:12.868Z,20.90
2022-12-08T16:15:01.701Z,20.07
2022-12-08T16:19:41.809Z,21.23
2022-12-08T16:24:45.237Z,22.13
2022-12-08T16:29:50.243Z,22.27
2022-12-08T16:34:54.618Z,21.20
2022-12-08T16:39:59.389Z,23.97
2022-12-08T16:45:07.516Z,22.43
2022-12-08T16:50:15.714Z,26.83
2022-12-08T16:55:20.683Z,23.77
2022-12-08T17:00:27.763Z,18.10
2022-12-08T17:05:32.072Z,20.33
2022-12-08T17:10:38.550Z,20.97
2022-12-08T17:15:43.350Z,21.40
2022-12-08T17:20:46.714Z,22.63
2022-12-08T17:25:59.174Z,21.10
2022-12-08T17:31:09.541Z,20.87
2022-12-08T17:36:14.987Z,20.13
2022-12-08T17:41:18.378Z,22.90
2022-12-08T17:46:25.208Z,20.80
2022-12-08T17:51:28.689Z,19.37
2022-12-08T17:56:32.194Z,20.80
2022-12-08T18:01:37.076Z,18.60
2022-12-08T18:06:41.598Z,20.77
2022-12-08T18:11:46.391Z,19.60
2022-12-08T18:16:51.771Z,20.80
2022-12-08T18:21:55.293Z,20.93
2022-12-08T18:26:59.249Z,23.30
2022-12-08T18:32:04.116Z,20.67
2022-12-08T18:37:08.865Z,20.13
2022-12-08T18:42:23.905Z,20.10
2022-12-08T18:47:29.085Z,20.90
2022-12-08T18:52:33.068Z,23.17
2022-12-08T18:57:38.624Z,20.67
2022-12-08T19:02:44.171Z,21.83
2022-12-08T19:07:47.759Z,21.80
2022-12-08T19:12:51.685Z,21.17
2022-12-08T19:17:56.485Z,22.40
2022-12-08T19:22:59.860Z,20.67
2022-12-08T19:28:03.179Z,20.60
2022-12-08T19:33:08.174Z,21.60
2022-12-08T19:38:11.714Z,23.90
2022-12-08T19:43:34.869Z,22.30
2022-12-08T19:48:39.704Z,22.17
2022-12-08T19:53:47.560Z,25.87
2022-12-08T19:58:51.289Z,22.00
2022-12-08T20:03:56.072Z,22.37
2022-12-08T20:08:59.727Z,22.07
2022-12-08T20:14:03.193Z,22.53
2022-12-08T20:19:08.024Z,21.00
2022-12-08T20:24:11.456Z,22.67
2022-12-08T20:29:17.021Z,23.10
2022-12-08T20:34:21.811Z,22.03
2022-12-08T20:39:25.189Z,22.23
2022-12-08T20:44:30.305Z,20.87
2022-12-08T20:49:35.283Z,21.60
2022-12-08T20:54:38.894Z,23.37
2022-12-08T20:59:42.408Z,21.03
2022-12-08T21:04:47.437Z,22.90
2022-12-08T21:09:51.438Z,23.70
2022-12-08T21:14:54.906Z,23.60
2022-12-08T21:19:59.869Z,23.30
2022-12-08T21:25:03.374Z,23.37
2022-12-08T21:30:09.958Z,23.43
2022-12-08T21:35:15.178Z,23.03
2022-12-08T21:40:19.201Z,21.20
2022-12-08T21:45:22.948Z,23.40
2022-12-08T21:50:27.926Z,22.97
2022-12-08T21:55:31.483Z,23.67
2022-12-08T22:00:35.208Z,22.67
2022-12-08T22:05:40.430Z,22.70
2022-12-08T22:10:48.256Z,23.33
2022-12-08T22:15:57.436Z,23.47
2022-12-08T22:21:02.674Z,25.50
2022-12-08T22:26:07.881Z,26.47
2022-12-08T22:31:12.733Z,28.60
2022-12-08T22:36:20.263Z,29.13
2022-12-08T22:41:24.500Z,30.57
2022-12-08T22:46:28.633Z,31.27
2022-12-08T22:51:33.698Z,33.40
2022-12-08T22:56:37.154Z,32.33
2022-12-08T23:01:40.698Z,33.63
2022-12-08T23:06:45.615Z,31.40
2022-12-08T23:11:49.283Z,33.40
2022-12-08T23:16:52.816Z,32.67
2022-12-08T23:21:57.602Z,31.97
2022-12-08T23:27:01.132Z,33.50
2022-12-08T23:32:05.189Z,34.47
2022-12-08T23:37:10.324Z,31.20
2022-12-08T23:42:13.988Z,31.07
2022-12-08T23:47:17.516Z,29.83
2022-12-08T23:52:22.530Z,30.63
2022-12-08T23:57:25.909Z,31.23
